sensor_id;sensor_type;location;lat;lon;timestamp;P1;P2;P0
77413;PMS7003;66486;49.992;19.164;2023-11-19T00:01:23;25.75;23.75;13.50
77413;PMS7003;66486;49.992;19.164;2023-11-19T00:03:49;19.00;19.00;12.00
77413;PMS7003;66486;49.992;19.164;2023-11-19T00:06:15;25.75;25.75;14.25
77413;PMS7003;66486;49.992;19.164;2023-11-19T00:08:42;28.50;24.25;14.75
77413;PMS7003;66486;49.992;19.164;2023-11-19T00:11:09;16.50;16.50;15.00
77413;PMS7003;66486;49.992;19.164;2023-11-19T00:13:35;27.00;21.67;13.00
77413;PMS7003;66486;49.992;19.164;2023-11-19T00:16:01;37.25;33.75;18.50
77413;PMS7003;66486;49.992;19.164;2023-11-19T00:18:29;36.50;32.00;15.75
77413;PMS7003;66486;49.992;19.164;2023-11-19T00:20:56;37.50;34.25;19.25
77413;PMS7003;66486;49.992;19.164;2023-11-19T00:23:21;24.67;21.33;13.00
77413;PMS7003;66486;49.992;19.164;2023-11-19T00:25:49;27.75;26.75;19.25
77413;PMS7003;66486;49.992;19.164;2023-11-19T00:28:14;37.00;36.00;21.67
77413;PMS7003;66486;49.992;19.164;2023-11-19T00:30:41;33.00;32.25;18.00
77413;PMS7003;66486;49.992;19.164;2023-11-19T00:33:06;39.00;34.00;18.00
77413;PMS7003;66486;49.992;19.164;2023-11-19T00:35:33;46.75;40.25;27.25
77413;PMS7003;66486;49.992;19.164;2023-11-19T00:37:59;39.00;35.33;23.33
77413;PMS7003;66486;49.992;19.164;2023-11-19T00:40:26;33.75;30.75;16.75
77413;PMS7003;66486;49.992;19.164;2023-11-19T00:42:52;30.00;29.33;20.00
77413;PMS7003;66486;49.992;19.164;2023-11-19T00:45:18;32.50;31.75;16.00
77413;PMS7003;66486;49.992;19.164;2023-11-19T00:47:44;37.00;34.00;18.33
77413;PMS7003;66486;49.992;19.164;2023-11-19T00:50:10;40.25;35.75;17.75
77413;PMS7003;66486;49.992;19.164;2023-11-19T00:52:37;26.75;25.75;13.00
77413;PMS7003;66486;49.992;19.164;2023-11-19T00:55:04;42.00;36.75;19.25
77413;PMS7003;66486;49.992;19.164;2023-11-19T00:57:30;38.25;35.00;20.00
77413;PMS7003;66486;49.992;19.164;2023-11-19T00:59:58;43.00;41.00;22.00
77413;PMS7003;66486;49.992;19.164;2023-11-19T01:02:25;49.50;47.50;26.00
77413;PMS7003;66486;49.992;19.164;2023-11-19T01:04:51;48.75;46.25;24.75
77413;PMS7003;66486;49.992;19.164;2023-11-19T01:07:17;43.25;41.50;21.25
77413;PMS7003;66486;49.992;19.164;2023-11-19T01:09:44;51.25;45.75;20.50
77413;PMS7003;66486;49.992;19.164;2023-11-19T01:12:10;53.00;44.00;26.67
77413;PMS7003;66486;49.992;19.164;2023-11-19T01:14:36;35.50;28.00;15.50
77413;PMS7003;66486;49.992;19.164;2023-11-19T01:17:02;50.50;45.00;20.75
77413;PMS7003;66486;49.992;19.164;2023-11-19T01:19:30;52.00;46.00;26.00
77413;PMS7003;66486;49.992;19.164;2023-11-19T01:21:56;39.67;36.33;18.67
77413;PMS7003;66486;49.992;19.164;2023-11-19T01:24:22;39.75;36.75;16.00
77413;PMS7003;66486;49.992;19.164;2023-11-19T01:26:48;42.33;36.67;22.00
77413;PMS7003;66486;49.992;19.164;2023-11-19T01:29:14;38.50;35.25;20.75
77413;PMS7003;66486;49.992;19.164;2023-11-19T01:31:41;37.00;35.75;23.00
77413;PMS7003;66486;49.992;19.164;2023-11-19T01:34:08;21.75;20.25;11.50
77413;PMS7003;66486;49.992;19.164;2023-11-19T01:36:35;34.75;31.50;18.25
77413;PMS7003;66486;49.992;19.164;2023-11-19T01:39:01;38.50;37.00;19.25
77413;PMS7003;66486;49.992;19.164;2023-11-19T01:41:29;62.25;48.00;27.25
77413;PMS7003;66486;49.992;19.164;2023-11-19T01:43:59;56.25;49.00;28.25
77413;PMS7003;66486;49.992;19.164;2023-11-19T01:46:25;44.67;43.33;24.67
77413;PMS7003;66486;49.992;19.164;2023-11-19T01:48:52;44.25;41.50;24.50
77413;PMS7003;66486;49.992;19.164;2023-11-19T01:51:19;53.00;47.50;25.50
77413;PMS7003;66486;49.992;19.164;2023-11-19T01:53:47;37.25;32.00;17.25
77413;PMS7003;66486;49.992;19.164;2023-11-19T01:56:14;40.00;35.00;18.50
77413;PMS7003;66486;49.992;19.164;2023-11-19T01:58:42;49.00;43.75;24.50
77413;PMS7003;66486;49.992;19.164;2023-11-19T02:01:10;41.50;38.00;19.50
77413;PMS7003;66486;49.992;19.164;2023-11-19T02:03:38;44.75;41.75;18.25
77413;PMS7003;66486;49.992;19.164;2023-11-19T02:06:04;35.50;32.75;23.50
77413;PMS7003;66486;49.992;19.164;2023-11-19T02:08:31;51.50;43.50;19.50
77413;PMS7003;66486;49.992;19.164;2023-11-19T02:10:57;48.00;41.50;24.25
77413;PMS7003;66486;49.992;19.164;2023-11-19T02:13:24;57.50;41.25;21.25
77413;PMS7003;66486;49.992;19.164;2023-11-19T02:15:50;40.25;35.75;21.25
77413;PMS7003;66486;49.992;19.164;2023-11-19T02:20:48;36.50;29.00;15.50
77413;PMS7003;66486;49.992;19.164;2023-11-19T02:23:16;43.25;40.00;17.50
77413;PMS7003;66486;49.992;19.164;2023-11-19T02:25:43;37.75;33.50;18.75
77413;PMS7003;66486;49.992;19.164;2023-11-19T02:28:18;48.50;45.50;30.00
77413;PMS7003;66486;49.992;19.164;2023-11-19T02:30:44;50.75;44.25;24.75
77413;PMS7003;66486;49.992;19.164;2023-11-19T02:33:11;36.50;35.50;21.50
77413;PMS7003;66486;49.992;19.164;2023-11-19T02:35:38;43.25;38.50;21.00
77413;PMS7003;66486;49.992;19.164;2023-11-19T02:38:06;52.75;45.50;25.00
77413;PMS7003;66486;49.992;19.164;2023-11-19T02:40:33;52.25;46.00;27.75
77413;PMS7003;66486;49.992;19.164;2023-11-19T02:42:59;43.50;40.50;21.50
77413;PMS7003;66486;49.992;19.164;2023-11-19T02:45:25;44.67;40.67;21.67
77413;PMS7003;66486;49.992;19.164;2023-11-19T02:47:52;52.75;48.25;26.75
77413;PMS7003;66486;49.992;19.164;2023-11-19T02:50:20;40.33;37.67;22.00
77413;PMS7003;66486;49.992;19.164;2023-11-19T02:52:53;47.25;43.75;28.25
77413;PMS7003;66486;49.992;19.164;2023-11-19T02:55:21;30.50;27.75;14.50
77413;PMS7003;66486;49.992;19.164;2023-11-19T02:57:49;44.25;38.00;19.25
77413;PMS7003;66486;49.992;19.164;2023-11-19T03:00:16;35.50;33.75;18.75
77413;PMS7003;66486;49.992;19.164;2023-11-19T03:02:44;35.25;26.00;9.00
77413;PMS7003;66486;49.992;19.164;2023-11-19T03:05:23;42.33;40.67;24.00
77413;PMS7003;66486;49.992;19.164;2023-11-19T03:07:50;46.00;42.00;27.00
77413;PMS7003;66486;49.992;19.164;2023-11-19T03:10:17;35.33;34.33;16.67
77413;PMS7003;66486;49.992;19.164;2023-11-19T03:12:43;54.25;45.25;28.50
77413;PMS7003;66486;49.992;19.164;2023-11-19T03:15:10;51.75;41.50;29.75
77413;PMS7003;66486;49.992;19.164;2023-11-19T03:17:41;52.75;46.00;24.75
77413;PMS7003;66486;49.992;19.164;2023-11-19T03:20:09;50.00;45.00;27.25
77413;PMS7003;66486;49.992;19.164;2023-11-19T03:22:36;55.75;47.50;29.50
77413;PMS7003;66486;49.992;19.164;2023-11-19T03:25:03;63.50;48.75;28.75
77413;PMS7003;66486;49.992;19.164;2023-11-19T03:27:30;52.00;45.67;28.00
77413;PMS7003;66486;49.992;19.164;2023-11-19T03:29:56;59.33;49.33;28.33
77413;PMS7003;66486;49.992;19.164;2023-11-19T03:32:22;63.50;50.25;27.00
77413;PMS7003;66486;49.992;19.164;2023-11-19T03:34:48;63.33;52.67;30.00
77413;PMS7003;66486;49.992;19.164;2023-11-19T03:37:15;48.67;43.33;27.00
77413;PMS7003;66486;49.992;19.164;2023-11-19T03:39:42;66.00;52.33;30.00
77413;PMS7003;66486;49.992;19.164;2023-11-19T03:42:09;56.67;48.33;28.67
77413;PMS7003;66486;49.992;19.164;2023-11-19T03:44:34;55.00;48.67;27.33
77413;PMS7003;66486;49.992;19.164;2023-11-19T03:47:01;56.33;49.00;28.67
77413;PMS7003;66486;49.992;19.164;2023-11-19T03:49:27;40.25;38.75;23.75
77413;PMS7003;66486;49.992;19.164;2023-11-19T03:51:53;58.75;47.25;26.75
77413;PMS7003;66486;49.992;19.164;2023-11-19T03:54:19;56.67;45.33;28.33
77413;PMS7003;66486;49.992;19.164;2023-11-19T03:56:47;48.67;40.67;19.67
77413;PMS7003;66486;49.992;19.164;2023-11-19T03:59:13;70.00;54.33;30.67
77413;PMS7003;66486;49.992;19.164;2023-11-19T04:01:41;42.33;36.67;22.00
77413;PMS7003;66486;49.992;19.164;2023-11-19T04:04:07;47.33;44.33;27.67
77413;PMS7003;66486;49.992;19.164;2023-11-19T04:06:33;43.00;38.00;25.00
77413;PMS7003;66486;49.992;19.164;2023-11-19T04:08:59;31.33;30.67;24.33
77413;PMS7003;66486;49.992;19.164;2023-11-19T04:11:26;46.33;43.33;25.00
77413;PMS7003;66486;49.992;19.164;2023-11-19T04:13:53;42.00;38.75;24.00
77413;PMS7003;66486;49.992;19.164;2023-11-19T04:16:19;44.50;38.50;23.00
77413;PMS7003;66486;49.992;19.164;2023-11-19T04:18:50;46.00;42.75;23.50
77413;PMS7003;66486;49.992;19.164;2023-11-19T04:21:17;49.00;41.50;21.00
77413;PMS7003;66486;49.992;19.164;2023-11-19T04:23:42;50.33;40.00;24.00
77413;PMS7003;66486;49.992;19.164;2023-11-19T04:26:09;56.00;49.67;29.33
77413;PMS7003;66486;49.992;19.164;2023-11-19T04:28:34;51.33;45.33;25.67
77413;PMS7003;66486;49.992;19.164;2023-11-19T04:31:00;66.00;50.67;29.00
77413;PMS7003;66486;49.992;19.164;2023-11-19T04:33:27;47.75;42.75;27.00
77413;PMS7003;66486;49.992;19.164;2023-11-19T04:35:53;51.00;46.50;25.00
77413;PMS7003;66486;49.992;19.164;2023-11-19T04:38:19;63.50;48.50;26.00
77413;PMS7003;66486;49.992;19.164;2023-11-19T04:40:45;47.00;42.50;23.75
77413;PMS7003;66486;49.992;19.164;2023-11-19T04:43:11;47.67;42.67;25.00
77413;PMS7003;66486;49.992;19.164;2023-11-19T04:45:38;49.00;44.25;23.00
77413;PMS7003;66486;49.992;19.164;2023-11-19T04:48:05;36.50;35.50;18.00
77413;PMS7003;66486;49.992;19.164;2023-11-19T04:50:31;46.75;42.00;20.25
77413;PMS7003;66486;49.992;19.164;2023-11-19T04:52:57;48.33;45.33;27.33
77413;PMS7003;66486;49.992;19.164;2023-11-19T04:55:23;43.25;41.75;24.75
77413;PMS7003;66486;49.992;19.164;2023-11-19T04:57:49;48.00;45.33;25.67
77413;PMS7003;66486;49.992;19.164;2023-11-19T05:00:15;35.75;33.50;17.50
77413;PMS7003;66486;49.992;19.164;2023-11-19T05:02:41;48.00;45.33;27.67
77413;PMS7003;66486;49.992;19.164;2023-11-19T05:05:07;50.33;44.00;27.33
77413;PMS7003;66486;49.992;19.164;2023-11-19T05:07:34;43.75;40.50;24.75
77413;PMS7003;66486;49.992;19.164;2023-11-19T05:10:00;43.33;42.00;18.67
77413;PMS7003;66486;49.992;19.164;2023-11-19T05:12:26;38.75;33.50;15.00
77413;PMS7003;66486;49.992;19.164;2023-11-19T05:14:52;48.00;43.33;25.67
77413;PMS7003;66486;49.992;19.164;2023-11-19T05:17:18;34.33;34.33;18.33
77413;PMS7003;66486;49.992;19.164;2023-11-19T05:19:45;44.50;41.50;23.25
77413;PMS7003;66486;49.992;19.164;2023-11-19T05:22:11;46.33;41.00;24.33
77413;PMS7003;66486;49.992;19.164;2023-11-19T05:24:38;40.50;35.25;21.00
77413;PMS7003;66486;49.992;19.164;2023-11-19T05:27:05;49.67;45.00;21.67
77413;PMS7003;66486;49.992;19.164;2023-11-19T05:29:32;38.50;33.00;15.25
77413;PMS7003;66486;49.992;19.164;2023-11-19T05:31:58;39.25;36.25;19.00
77413;PMS7003;66486;49.992;19.164;2023-11-19T05:34:25;43.33;40.33;26.33
77413;PMS7003;66486;49.992;19.164;2023-11-19T05:36:50;42.33;40.33;21.00
77413;PMS7003;66486;49.992;19.164;2023-11-19T05:39:17;43.25;39.50;24.25
77413;PMS7003;66486;49.992;19.164;2023-11-19T05:41:46;40.25;35.50;24.25
77413;PMS7003;66486;49.992;19.164;2023-11-19T05:44:12;45.50;35.75;23.75
77413;PMS7003;66486;49.992;19.164;2023-11-19T05:46:38;40.67;37.00;18.67
77413;PMS7003;66486;49.992;19.164;2023-11-19T05:49:11;51.67;45.33;27.00
77413;PMS7003;66486;49.992;19.164;2023-11-19T05:51:38;60.33;51.00;29.33
77413;PMS7003;66486;49.992;19.164;2023-11-19T05:54:08;70.67;59.33;30.33
77413;PMS7003;66486;49.992;19.164;2023-11-19T05:56:36;73.67;62.33;36.33
77413;PMS7003;66486;49.992;19.164;2023-11-19T05:59:02;75.00;60.00;34.00
77413;PMS7003;66486;49.992;19.164;2023-11-19T06:01:40;78.00;61.25;33.75
77413;PMS7003;66486;49.992;19.164;2023-11-19T06:04:07;75.50;61.50;36.00
77413;PMS7003;66486;49.992;19.164;2023-11-19T06:06:33;71.00;58.25;35.00
77413;PMS7003;66486;49.992;19.164;2023-11-19T06:09:00;77.75;61.25;35.50
77413;PMS7003;66486;49.992;19.164;2023-11-19T06:11:27;81.25;67.00;40.00
77413;PMS7003;66486;49.992;19.164;2023-11-19T06:13:53;74.75;59.75;37.75
77413;PMS7003;66486;49.992;19.164;2023-11-19T06:16:20;80.50;62.00;38.00
77413;PMS7003;66486;49.992;19.164;2023-11-19T06:18:46;72.50;60.00;37.75
77413;PMS7003;66486;49.992;19.164;2023-11-19T06:21:12;81.67;63.33;35.33
77413;PMS7003;66486;49.992;19.164;2023-11-19T06:23:38;68.00;54.75;32.00
77413;PMS7003;66486;49.992;19.164;2023-11-19T06:26:05;63.33;52.67;33.33
77413;PMS7003;66486;49.992;19.164;2023-11-19T06:28:31;67.75;53.00;34.00
77413;PMS7003;66486;49.992;19.164;2023-11-19T06:30:57;76.33;61.33;33.33
77413;PMS7003;66486;49.992;19.164;2023-11-19T06:33:24;61.00;48.33;30.67
77413;PMS7003;66486;49.992;19.164;2023-11-19T06:35:50;84.00;64.67;34.67
77413;PMS7003;66486;49.992;19.164;2023-11-19T06:38:16;74.33;59.33;33.00
77413;PMS7003;66486;49.992;19.164;2023-11-19T06:40:42;69.00;58.33;31.67
77413;PMS7003;66486;49.992;19.164;2023-11-19T06:43:08;67.33;56.67;39.00
77413;PMS7003;66486;49.992;19.164;2023-11-19T06:45:34;83.33;65.33;34.67
77413;PMS7003;66486;49.992;19.164;2023-11-19T06:48:02;80.00;66.25;39.25
77413;PMS7003;66486;49.992;19.164;2023-11-19T06:50:30;80.00;65.50;37.75
77413;PMS7003;66486;49.992;19.164;2023-11-19T06:52:57;80.75;64.25;39.75
77413;PMS7003;66486;49.992;19.164;2023-11-19T06:55:23;76.67;62.00;36.00
77413;PMS7003;66486;49.992;19.164;2023-11-19T06:57:50;81.50;62.50;34.00
77413;PMS7003;66486;49.992;19.164;2023-11-19T07:00:15;80.25;63.75;39.00
77413;PMS7003;66486;49.992;19.164;2023-11-19T07:02:42;79.00;63.00;34.67
77413;PMS7003;66486;49.992;19.164;2023-11-19T07:05:09;71.33;58.33;38.00
77413;PMS7003;66486;49.992;19.164;2023-11-19T07:07:36;76.67;61.00;33.00
77413;PMS7003;66486;49.992;19.164;2023-11-19T07:10:02;75.75;61.25;31.50
77413;PMS7003;66486;49.992;19.164;2023-11-19T07:12:30;78.33;63.67;32.33
77413;PMS7003;66486;49.992;19.164;2023-11-19T07:14:56;87.25;67.75;39.50
77413;PMS7003;66486;49.992;19.164;2023-11-19T07:17:23;75.00;60.00;34.00
77413;PMS7003;66486;49.992;19.164;2023-11-19T07:19:49;73.50;57.75;33.50
77413;PMS7003;66486;49.992;19.164;2023-11-19T07:22:16;68.00;54.67;31.33
77413;PMS7003;66486;49.992;19.164;2023-11-19T07:24:42;77.75;62.00;36.00
77413;PMS7003;66486;49.992;19.164;2023-11-19T07:27:08;75.00;61.25;34.00
77413;PMS7003;66486;49.992;19.164;2023-11-19T07:29:34;76.33;60.33;33.00
77413;PMS7003;66486;49.992;19.164;2023-11-19T07:32:01;62.00;51.25;35.50
77413;PMS7003;66486;49.992;19.164;2023-11-19T07:34:27;73.50;60.50;34.00
77413;PMS7003;66486;49.992;19.164;2023-11-19T07:36:54;70.75;58.00;32.50
77413;PMS7003;66486;49.992;19.164;2023-11-19T07:39:24;70.75;56.00;31.50
77413;PMS7003;66486;49.992;19.164;2023-11-19T07:41:51;64.75;53.00;29.00
77413;PMS7003;66486;49.992;19.164;2023-11-19T07:44:16;76.00;57.67;33.33
77413;PMS7003;66486;49.992;19.164;2023-11-19T07:46:43;71.75;56.50;32.00
77413;PMS7003;66486;49.992;19.164;2023-11-19T07:49:10;77.50;59.75;33.00
77413;PMS7003;66486;49.992;19.164;2023-11-19T07:51:36;69.50;57.00;33.50
77413;PMS7003;66486;49.992;19.164;2023-11-19T07:54:02;74.00;60.67;34.67
77413;PMS7003;66486;49.992;19.164;2023-11-19T07:56:29;68.00;51.75;26.50
77413;PMS7003;66486;49.992;19.164;2023-11-19T07:58:55;58.67;49.67;25.67
77413;PMS7003;66486;49.992;19.164;2023-11-19T08:01:22;68.00;55.75;29.00
77413;PMS7003;66486;49.992;19.164;2023-11-19T08:03:49;68.50;52.50;30.00
77413;PMS7003;66486;49.992;19.164;2023-11-19T08:06:15;55.50;50.00;32.50
77413;PMS7003;66486;49.992;19.164;2023-11-19T08:08:41;58.67;49.00;29.67
77413;PMS7003;66486;49.992;19.164;2023-11-19T08:11:10;71.00;56.50;32.50
77413;PMS7003;66486;49.992;19.164;2023-11-19T08:13:35;58.00;49.25;29.00
77413;PMS7003;66486;49.992;19.164;2023-11-19T08:16:02;67.00;54.00;30.75
77413;PMS7003;66486;49.992;19.164;2023-11-19T08:18:28;67.00;54.33;29.33
77413;PMS7003;66486;49.992;19.164;2023-11-19T08:20:54;57.25;48.25;28.50
77413;PMS7003;66486;49.992;19.164;2023-11-19T08:23:21;64.00;54.00;33.00
77413;PMS7003;66486;49.992;19.164;2023-11-19T08:25:50;66.75;51.75;29.50
77413;PMS7003;66486;49.992;19.164;2023-11-19T08:28:15;54.67;48.67;30.00
77413;PMS7003;66486;49.992;19.164;2023-11-19T08:30:42;50.00;45.00;24.75
77413;PMS7003;66486;49.992;19.164;2023-11-19T08:33:09;52.75;46.00;30.00
77413;PMS7003;66486;49.992;19.164;2023-11-19T08:35:36;55.25;48.25;29.50
77413;PMS7003;66486;49.992;19.164;2023-11-19T08:38:01;41.33;41.33;28.33
77413;PMS7003;66486;49.992;19.164;2023-11-19T08:40:28;45.00;39.50;21.00
77413;PMS7003;66486;49.992;19.164;2023-11-19T08:42:57;52.25;46.75;23.75
77413;PMS7003;66486;49.992;19.164;2023-11-19T08:45:23;50.50;46.50;23.00
77413;PMS7003;66486;49.992;19.164;2023-11-19T08:47:49;50.67;43.33;22.00
77413;PMS7003;66486;49.992;19.164;2023-11-19T08:50:15;29.25;28.00;12.50
77413;PMS7003;66486;49.992;19.164;2023-11-19T08:52:41;31.33;27.67;21.33
77413;PMS7003;66486;49.992;19.164;2023-11-19T08:55:07;37.00;29.75;18.00
77413;PMS7003;66486;49.992;19.164;2023-11-19T08:57:35;51.50;46.50;23.50
77413;PMS7003;66486;49.992;19.164;2023-11-19T09:00:01;47.00;43.75;25.50
77413;PMS7003;66486;49.992;19.164;2023-11-19T09:02:33;44.00;40.75;24.25
77413;PMS7003;66486;49.992;19.164;2023-11-19T09:05:03;45.00;42.25;24.75
77413;PMS7003;66486;49.992;19.164;2023-11-19T09:07:31;40.00;36.25;22.50
77413;PMS7003;66486;49.992;19.164;2023-11-19T09:09:57;42.75;38.50;22.50
77413;PMS7003;66486;49.992;19.164;2023-11-19T09:12:23;37.67;36.33;25.00
77413;PMS7003;66486;49.992;19.164;2023-11-19T09:14:49;51.00;46.50;24.50
77413;PMS7003;66486;49.992;19.164;2023-11-19T09:17:15;27.00;25.67;7.00
77413;PMS7003;66486;49.992;19.164;2023-11-19T09:19:43;38.25;36.25;25.00
77413;PMS7003;66486;49.992;19.164;2023-11-19T09:22:09;44.75;38.75;21.75
77413;PMS7003;66486;49.992;19.164;2023-11-19T09:24:42;51.75;48.25;28.00
77413;PMS7003;66486;49.992;19.164;2023-11-19T09:27:10;44.20;38.80;19.00
77413;PMS7003;66486;49.992;19.164;2023-11-19T09:29:36;46.60;42.40;21.00
77413;PMS7003;66486;49.992;19.164;2023-11-19T09:32:02;48.50;42.00;22.00
77413;PMS7003;66486;49.992;19.164;2023-11-19T09:34:28;45.40;41.40;25.40
77413;PMS7003;66486;49.992;19.164;2023-11-19T09:36:54;45.67;42.67;22.00
77413;PMS7003;66486;49.992;19.164;2023-11-19T09:39:20;49.20;43.00;24.20
77413;PMS7003;66486;49.992;19.164;2023-11-19T09:41:46;52.75;48.00;27.25
77413;PMS7003;66486;49.992;19.164;2023-11-19T09:44:13;62.75;52.00;30.00
77413;PMS7003;66486;49.992;19.164;2023-11-19T09:46:42;63.50;52.50;30.00
77413;PMS7003;66486;49.992;19.164;2023-11-19T09:49:10;63.00;50.75;28.00
77413;PMS7003;66486;49.992;19.164;2023-11-19T09:51:37;55.25;48.00;27.25
77413;PMS7003;66486;49.992;19.164;2023-11-19T09:54:03;53.50;47.50;24.75
77413;PMS7003;66486;49.992;19.164;2023-11-19T09:56:29;49.00;42.25;20.50
77413;PMS7003;66486;49.992;19.164;2023-11-19T09:58:55;37.00;34.75;24.50
77413;PMS7003;66486;49.992;19.164;2023-11-19T10:01:21;46.25;43.25;25.50
77413;PMS7003;66486;49.992;19.164;2023-11-19T10:03:48;48.00;45.00;25.80
77413;PMS7003;66486;49.992;19.164;2023-11-19T10:06:17;40.60;38.80;19.80
77413;PMS7003;66486;49.992;19.164;2023-11-19T10:08:44;34.40;34.20;19.00
77413;PMS7003;66486;49.992;19.164;2023-11-19T10:11:10;35.25;32.75;18.25
77413;PMS7003;66486;49.992;19.164;2023-11-19T10:13:38;33.60;28.80;15.60
77413;PMS7003;66486;49.992;19.164;2023-11-19T10:16:08;29.20;28.00;15.60
77413;PMS7003;66486;49.992;19.164;2023-11-19T10:18:37;30.80;25.40;15.00
77413;PMS7003;66486;49.992;19.164;2023-11-19T10:21:08;41.00;34.80;21.20
77413;PMS7003;66486;49.992;19.164;2023-11-19T10:23:55;32.40;30.00;18.40
77413;PMS7003;66486;49.992;19.164;2023-11-19T10:26:26;31.80;30.40;17.60
77413;PMS7003;66486;49.992;19.164;2023-11-19T10:28:53;26.20;25.00;15.60
77413;PMS7003;66486;49.992;19.164;2023-11-19T10:31:21;28.80;27.40;16.40
77413;PMS7003;66486;49.992;19.164;2023-11-19T10:33:51;24.20;24.20;15.40
77413;PMS7003;66486;49.992;19.164;2023-11-19T10:36:17;30.25;27.25;16.00
77413;PMS7003;66486;49.992;19.164;2023-11-19T10:41:29;26.00;23.20;13.40
77413;PMS7003;66486;49.992;19.164;2023-11-19T10:43:57;21.60;20.40;12.20
77413;PMS7003;66486;49.992;19.164;2023-11-19T10:46:23;22.20;19.40;10.60
77413;PMS7003;66486;49.992;19.164;2023-11-19T10:49:03;21.60;21.00;12.60
77413;PMS7003;66486;49.992;19.164;2023-11-19T10:51:29;18.80;18.80;11.40
77413;PMS7003;66486;49.992;19.164;2023-11-19T10:53:57;15.20;13.40;9.40
77413;PMS7003;66486;49.992;19.164;2023-11-19T10:56:33;15.40;15.20;11.20
77413;PMS7003;66486;49.992;19.164;2023-11-19T10:59:00;8.60;8.60;4.00
77413;PMS7003;66486;49.992;19.164;2023-11-19T11:01:31;18.00;18.00;11.20
77413;PMS7003;66486;49.992;19.164;2023-11-19T11:04:06;14.20;13.00;8.20
77413;PMS7003;66486;49.992;19.164;2023-11-19T11:06:42;16.80;16.20;10.00
77413;PMS7003;66486;49.992;19.164;2023-11-19T11:09:09;15.40;13.00;10.80
77413;PMS7003;66486;49.992;19.164;2023-11-19T11:11:40;12.80;12.80;9.00
77413;PMS7003;66486;49.992;19.164;2023-11-19T11:14:10;17.20;16.40;12.00
77413;PMS7003;66486;49.992;19.164;2023-11-19T11:16:43;19.20;19.20;11.80
77413;PMS7003;66486;49.992;19.164;2023-11-19T11:19:10;16.40;16.40;10.80
77413;PMS7003;66486;49.992;19.164;2023-11-19T11:21:38;9.80;9.80;4.80
77413;PMS7003;66486;49.992;19.164;2023-11-19T11:35:01;20.60;19.60;12.00
77413;PMS7003;66486;49.992;19.164;2023-11-19T11:37:45;25.00;20.60;13.00
77413;PMS7003;66486;49.992;19.164;2023-11-19T11:40:15;30.00;23.20;15.00
77413;PMS7003;66486;49.992;19.164;2023-11-19T11:42:46;18.20;15.40;12.00
77413;PMS7003;66486;49.992;19.164;2023-11-19T11:45:13;18.60;17.20;11.60
77413;PMS7003;66486;49.992;19.164;2023-11-19T11:50:15;16.00;16.00;10.80
77413;PMS7003;66486;49.992;19.164;2023-11-19T11:55:26;26.20;26.20;17.60
77413;PMS7003;66486;49.992;19.164;2023-11-19T11:57:55;22.80;21.80;15.00
77413;PMS7003;66486;49.992;19.164;2023-11-19T12:00:24;26.60;24.80;16.20
77413;PMS7003;66486;49.992;19.164;2023-11-19T12:02:56;24.40;22.60;12.80
77413;PMS7003;66486;49.992;19.164;2023-11-19T12:05:25;30.20;29.20;16.00
77413;PMS7003;66486;49.992;19.164;2023-11-19T12:07:56;30.60;22.20;15.00
77413;PMS7003;66486;49.992;19.164;2023-11-19T12:10:29;19.60;15.40;9.60
77413;PMS7003;66486;49.992;19.164;2023-11-19T12:12:59;13.00;13.00;11.20
77413;PMS7003;66486;49.992;19.164;2023-11-19T12:15:26;22.20;22.20;12.80
77413;PMS7003;66486;49.992;19.164;2023-11-19T12:17:53;32.40;29.80;15.80
77413;PMS7003;66486;49.992;19.164;2023-11-19T12:20:24;44.00;41.00;22.20
77413;PMS7003;66486;49.992;19.164;2023-11-19T12:22:51;30.40;24.00;9.80
77413;PMS7003;66486;49.992;19.164;2023-11-19T12:25:19;35.60;33.40;20.20
77413;PMS7003;66486;49.992;19.164;2023-11-19T12:27:49;36.80;29.20;17.60
77413;PMS7003;66486;49.992;19.164;2023-11-19T12:30:17;22.80;22.80;15.20
77413;PMS7003;66486;49.992;19.164;2023-11-19T12:32:52;33.20;27.20;15.60
77413;PMS7003;66486;49.992;19.164;2023-11-19T12:35:19;22.40;21.40;15.60
77413;PMS7003;66486;49.992;19.164;2023-11-19T12:37:46;26.00;24.75;15.25
77413;PMS7003;66486;49.992;19.164;2023-11-19T12:40:14;23.40;21.20;12.00
77413;PMS7003;66486;49.992;19.164;2023-11-19T12:42:44;20.20;18.80;14.20
77413;PMS7003;66486;49.992;19.164;2023-11-19T12:45:15;22.40;19.80;12.20
77413;PMS7003;66486;49.992;19.164;2023-11-19T12:47:45;16.40;16.40;9.00
77413;PMS7003;66486;49.992;19.164;2023-11-19T12:50:15;21.60;21.60;12.00
77413;PMS7003;66486;49.992;19.164;2023-11-19T12:52:55;23.60;21.80;14.20
77413;PMS7003;66486;49.992;19.164;2023-11-19T12:55:26;19.00;18.60;9.80
77413;PMS7003;66486;49.992;19.164;2023-11-19T12:57:54;21.60;18.20;10.00
77413;PMS7003;66486;49.992;19.164;2023-11-19T13:00:22;18.40;16.00;10.00
77413;PMS7003;66486;49.992;19.164;2023-11-19T13:02:50;21.80;20.60;10.40
77413;PMS7003;66486;49.992;19.164;2023-11-19T13:05:31;16.00;16.00;12.40
77413;PMS7003;66486;49.992;19.164;2023-11-19T13:08:02;23.40;20.00;13.00
77413;PMS7003;66486;49.992;19.164;2023-11-19T13:10:31;23.60;22.00;15.20
77413;PMS7003;66486;49.992;19.164;2023-11-19T13:13:02;16.80;16.80;12.40
77413;PMS7003;66486;49.992;19.164;2023-11-19T13:15:30;22.80;18.20;15.00
77413;PMS7003;66486;49.992;19.164;2023-11-19T13:17:56;26.60;24.80;16.60
77413;PMS7003;66486;49.992;19.164;2023-11-19T13:20:22;8.00;8.00;8.00
77413;PMS7003;66486;49.992;19.164;2023-11-19T13:22:58;25.25;24.25;9.00
77413;PMS7003;66486;49.992;19.164;2023-11-19T13:25:26;33.40;30.40;18.40
77413;PMS7003;66486;49.992;19.164;2023-11-19T13:27:54;27.20;26.40;16.00
77413;PMS7003;66486;49.992;19.164;2023-11-19T13:30:21;46.00;43.00;28.80
77413;PMS7003;66486;49.992;19.164;2023-11-19T13:32:50;21.60;20.40;14.60
77413;PMS7003;66486;49.992;19.164;2023-11-19T13:35:17;26.00;23.20;15.60
77413;PMS7003;66486;49.992;19.164;2023-11-19T13:37:44;22.80;21.40;15.00
77413;PMS7003;66486;49.992;19.164;2023-11-19T13:40:10;25.20;25.20;16.00
77413;PMS7003;66486;49.992;19.164;2023-11-19T13:42:40;21.00;21.00;12.60
77413;PMS7003;66486;49.992;19.164;2023-11-19T13:45:12;25.80;24.80;15.20
77413;PMS7003;66486;49.992;19.164;2023-11-19T13:47:40;30.00;27.00;16.00
77413;PMS7003;66486;49.992;19.164;2023-11-19T13:50:11;26.00;21.40;14.20
77413;PMS7003;66486;49.992;19.164;2023-11-19T13:52:43;28.40;26.60;15.00
77413;PMS7003;66486;49.992;19.164;2023-11-19T13:55:12;26.20;23.40;16.00
77413;PMS7003;66486;49.992;19.164;2023-11-19T13:57:39;24.00;21.00;11.60